Time,TemperatureF,DewpointF,PressureIn,WindDirection,WindDirectionDegrees,WindSpeedMPH,WindSpeedGustMPH,Humidity,HourlyPrecipIn,Conditions,Clouds,dailyrainin,SoftwareType,DateUTC
2013-01-29 00:00:00,47.3,32.0,30.12,WSW,257,2.7,2.7,55,0.00,,,-99.99,wx200d/1.3,2013-01-29 08:00:00,
2013-01-29 00:15:00,46.9,32.0,30.12,West,279,2.7,2.7,54,0.00,,,-99.99,wx200d/1.3,2013-01-29 08:15:00,
2013-01-29 00:30:00,46.9,32.0,30.12,WNW,285,2.7,0.0,54,0.00,,,-99.99,wx200d/1.3,2013-01-29 08:30:00,
2013-01-29 01:00:00,46.8,32.0,30.12,West,271,0.0,0.0,53,0.00,,,-99.99,wx200d/1.3,2013-01-29 09:00:00,
2013-01-29 01:15:00,46.9,32.0,30.12,West,272,0.0,3.1,52,0.00,,,-99.99,wx200d/1.3,2013-01-29 09:15:00,
2013-01-29 01:30:00,46.8,32.0,30.12,West,266,0.0,0.0,52,0.00,,,-99.99,wx200d/1.3,2013-01-29 09:30:00,
2013-01-29 01:45:00,46.8,32.0,30.12,West,275,2.7,2.7,52,0.00,,,-99.99,wx200d/1.3,2013-01-29 09:45:00,
2013-01-29 02:00:00,46.6,32.0,30.12,West,274,0.0,2.2,54,0.00,,,-99.99,wx200d/1.3,2013-01-29 10:00:00,
2013-01-29 02:15:00,46.4,32.0,30.12,West,271,0.0,2.7,56,0.00,,,-99.99,wx200d/1.3,2013-01-29 10:15:00,
2013-01-29 02:30:00,46.4,32.0,30.12,West,272,0.0,0.0,56,0.00,,,-99.99,wx200d/1.3,2013-01-29 10:30:00,
2013-01-29 02:45:00,46.0,32.0,30.15,West,275,0.0,0.0,55,0.00,,,-99.99,wx200d/1.3,2013-01-29 10:45:00,
2013-01-29 03:00:00,45.3,32.0,30.15,West,275,0.0,0.0,55,0.00,,,-99.99,wx200d/1.3,2013-01-29 11:00:00,
2013-01-29 03:15:00,45.9,32.0,30.15,West,281,2.2,3.6,57,0.00,,,-99.99,wx200d/1.3,2013-01-29 11:15:00,
2013-01-29 03:30:00,45.9,32.0,30.12,West,270,0.0,2.2,57,0.00,,,-99.99,wx200d/1.3,2013-01-29 11:30:00,
2013-01-29 03:45:00,46.2,32.0,30.12,West,279,0.0,2.2,54,0.00,,,-99.99,wx200d/1.3,2013-01-29 11:45:00,
2013-01-29 04:00:00,46.2,32.0,30.12,West,267,0.0,0.0,54,0.00,,,-99.99,wx200d/1.3,2013-01-29 12:00:00,
2013-01-29 04:15:00,46.0,32.0,30.12,West,272,2.2,2.7,55,0.00,,,-99.99,wx200d/1.3,2013-01-29 12:15:00,
2013-01-29 04:30:00,45.9,32.0,30.12,West,264,0.0,0.0,55,0.00,,,-99.99,wx200d/1.3,2013-01-29 12:30:00,
2013-01-29 04:45:00,46.2,32.0,30.15,West,267,0.0,0.0,53,0.00,,,-99.99,wx200d/1.3,2013-01-29 12:45:00,
2013-01-29 05:00:00,46.4,32.0,30.15,WNW,285,3.6,3.6,52,0.00,,,-99.99,wx200d/1.3,2013-01-29 13:00:00,
2013-01-29 05:15:00,46.4,32.0,30.15,West,272,2.7,3.1,53,0.00,,,-99.99,wx200d/1.3,2013-01-29 13:15:00,
2013-01-29 05:30:00,46.2,32.0,30.15,West,274,0.0,0.0,54,0.00,,,-99.99,wx200d/1.3,2013-01-29 13:30:00,
2013-01-29 05:45:00,46.2,32.0,30.15,West,266,0.0,0.0,55,0.00,,,-99.99,wx200d/1.3,2013-01-29 13:45:00,
2013-01-29 06:00:00,46.0,32.0,30.15,West,267,0.0,0.0,56,0.00,,,-99.99,wx200d/1.3,2013-01-29 14:00:00,
2013-01-29 06:15:00,45.7,32.0,30.15,WNW,286,0.0,0.0,55,0.00,,,-99.99,wx200d/1.3,2013-01-29 14:15:00,
2013-01-29 06:30:00,45.5,32.0,30.15,West,272,0.0,0.0,56,0.00,,,-99.99,wx200d/1.3,2013-01-29 14:30:00,
2013-01-29 06:45:00,46.0,32.0,30.15,West,277,0.0,0.0,58,0.00,,,-99.99,wx200d/1.3,2013-01-29 14:45:00,
2013-01-29 07:00:00,45.9,34.0,30.15,West,268,2.2,2.2,60,0.00,,,-99.99,wx200d/1.3,2013-01-29 15:00:00,
2013-01-29 07:15:00,45.5,34.0,30.15,West,269,0.0,0.0,61,0.00,,,-99.99,wx200d/1.3,2013-01-29 15:15:00,
2013-01-29 07:30:00,45.9,34.0,30.15,West,264,0.0,0.0,62,0.00,,,-99.99,wx200d/1.3,2013-01-29 15:30:00,
2013-01-29 07:45:00,46.4,34.0,30.18,West,274,0.0,0.0,60,0.00,,,-99.99,wx200d/1.3,2013-01-29 15:45:00,
2013-01-29 08:00:00,46.8,34.0,30.18,West,276,0.0,0.0,59,0.00,,,-99.99,wx200d/1.3,2013-01-29 16:00:00,
2013-01-29 08:15:00,47.3,34.0,30.18,West,260,0.0,0.0,57,0.00,,,-99.99,wx200d/1.3,2013-01-29 16:15:00,
2013-01-29 08:30:00,47.8,32.0,30.18,West,263,0.0,0.0,55,0.00,,,-99.99,wx200d/1.3,2013-01-29 16:30:00,
2013-01-29 08:45:00,48.7,32.0,30.15,West,265,0.0,0.0,51,0.00,,,-99.99,wx200d/1.3,2013-01-29 16:45:00,
2013-01-29 09:00:00,49.6,32.0,30.18,West,264,0.0,0.0,49,0.00,,,-99.99,wx200d/1.3,2013-01-29 17:00:00,
2013-01-29 09:15:00,50.4,32.0,30.18,West,265,0.0,0.0,41,0.00,,,-99.99,wx200d/1.3,2013-01-29 17:15:00,
2013-01-29 09:30:00,50.9,32.0,30.18,West,262,0.0,0.0,40,0.00,,,-99.99,wx200d/1.3,2013-01-29 17:30:00,
2013-01-29 09:45:00,51.3,32.0,30.18,West,272,0.0,0.0,38,0.00,,,-99.99,wx200d/1.3,2013-01-29 17:45:00,
2013-01-29 10:00:00,52.0,32.0,30.18,West,272,0.0,0.0,37,0.00,,,-99.99,wx200d/1.3,2013-01-29 18:00:00,
2013-01-29 10:15:00,52.5,32.0,30.18,West,269,0.0,0.0,36,0.00,,,-99.99,wx200d/1.3,2013-01-29 18:15:00,
2013-01-29 10:30:00,53.1,32.0,30.18,ENE,63,0.0,2.7,36,0.00,,,-99.99,wx200d/1.3,2013-01-29 18:30:00,
2013-01-29 10:45:00,53.1,32.0,30.21,West,268,0.0,2.2,30,0.00,,,-99.99,wx200d/1.3,2013-01-29 18:45:00,
2013-01-29 11:00:00,53.2,32.0,30.18,WSW,252,0.0,0.0,30,0.00,,,-99.99,wx200d/1.3,2013-01-29 19:00:00,
2013-01-29 11:15:00,54.0,32.0,30.18,ENE,78,0.0,2.7,28,0.00,,,-99.99,wx200d/1.3,2013-01-29 19:15:00,
2013-01-29 11:30:00,54.0,32.0,30.18,West,268,0.0,0.0,28,0.00,,,-99.99,wx200d/1.3,2013-01-29 19:30:00,
2013-01-29 11:45:00,54.3,32.0,30.18,ENE,68,0.0,0.0,27,0.00,,,-99.99,wx200d/1.3,2013-01-29 19:45:00,
2013-01-29 12:00:00,54.5,32.0,30.18,East,97,2.7,3.6,27,0.00,,,-99.99,wx200d/1.3,2013-01-29 20:00:00,
2013-01-29 12:15:00,54.9,32.0,30.18,East,82,2.2,2.2,27,0.00,,,-99.99,wx200d/1.3,2013-01-29 20:15:00,
2013-01-29 12:30:00,55.0,32.0,30.18,WSW,242,0.0,0.0,27,0.00,,,-99.99,wx200d/1.3,2013-01-29 20:30:00,
2013-01-29 12:45:00,55.8,32.0,30.15,East,93,0.0,0.0,26,0.00,,,-99.99,wx200d/1.3,2013-01-29 20:45:00,
2013-01-29 13:00:00,56.3,32.0,30.15,ENE,75,0.0,0.0,26,0.00,,,-99.99,wx200d/1.3,2013-01-29 21:00:00,
2013-01-29 13:15:00,56.7,32.0,30.15,West,267,0.0,0.0,27,0.00,,,-99.99,wx200d/1.3,2013-01-29 21:15:00,
2013-01-29 13:30:00,56.8,32.0,30.15,ENE,73,0.0,0.0,27,0.00,,,-99.99,wx200d/1.3,2013-01-29 21:30:00,
2013-01-29 13:45:00,57.4,32.0,30.15,West,267,0.0,0.0,26,0.00,,,-99.99,wx200d/1.3,2013-01-29 21:45:00,
2013-01-29 14:00:00,57.6,32.0,30.12,West,273,0.0,3.6,26,0.00,,,-99.99,wx200d/1.3,2013-01-29 22:00:00,
2013-01-29 14:15:00,57.6,32.0,30.12,WNW,293,0.0,0.0,26,0.00,,,-99.99,wx200d/1.3,2013-01-29 22:15:00,
2013-01-29 14:30:00,57.2,32.0,30.12,West,275,2.7,2.7,27,0.00,,,-99.99,wx200d/1.3,2013-01-29 22:30:00,
2013-01-29 14:45:00,56.8,32.0,30.12,West,281,2.2,2.2,28,0.00,,,-99.99,wx200d/1.3,2013-01-29 22:45:00,
2013-01-29 15:00:00,56.8,32.0,30.12,West,260,0.0,4.0,28,0.00,,,-99.99,wx200d/1.3,2013-01-29 23:00:00,
2013-01-29 15:15:00,57.2,32.0,30.12,West,273,0.0,3.1,29,0.00,,,-99.99,wx200d/1.3,2013-01-29 23:15:00,
2013-01-29 15:30:00,57.4,32.0,30.12,West,262,3.1,3.1,29,0.00,,,-99.99,wx200d/1.3,2013-01-29 23:30:00,
2013-01-29 15:45:00,57.2,32.0,30.12,West,275,0.0,2.2,30,0.00,,,-99.99,wx200d/1.3,2013-01-29 23:45:00,
2013-01-29 16:00:00,57.2,32.0,30.12,West,273,2.2,0.0,31,0.00,,,-99.99,wx200d/1.3,2013-01-30 00:00:00,
2013-01-29 16:15:00,56.7,32.0,30.12,West,264,2.7,3.6,33,0.00,,,-99.99,wx200d/1.3,2013-01-30 00:15:00,
2013-01-29 16:30:00,55.9,32.0,30.15,WNW,294,3.1,0.0,35,0.00,,,-99.99,wx200d/1.3,2013-01-30 00:30:00,
2013-01-29 16:45:00,55.4,32.0,30.15,West,264,3.1,3.1,35,0.00,,,-99.99,wx200d/1.3,2013-01-30 00:45:00,
2013-01-29 17:00:00,54.5,32.0,30.12,NNW,334,3.1,4.0,37,0.00,,,-99.99,wx200d/1.3,2013-01-30 01:00:00,
2013-01-29 17:15:00,53.6,32.0,30.15,WNW,288,2.2,4.0,40,0.00,,,-99.99,wx200d/1.3,2013-01-30 01:15:00,
2013-01-29 17:30:00,52.7,32.0,30.15,WNW,285,3.1,3.1,44,0.00,,,-99.99,wx200d/1.3,2013-01-30 01:30:00,
2013-01-29 17:45:00,52.0,32.0,30.15,West,276,0.0,2.2,47,0.00,,,-99.99,wx200d/1.3,2013-01-30 01:45:00,
2013-01-29 18:00:00,52.0,32.0,30.15,West,278,2.2,2.2,48,0.00,,,-99.99,wx200d/1.3,2013-01-30 02:00:00,
2013-01-29 18:15:00,51.4,32.0,30.15,West,268,0.0,0.0,48,0.00,,,-99.99,wx200d/1.3,2013-01-30 02:15:00,
2013-01-29 18:30:00,50.9,32.0,30.15,West,268,0.0,0.0,48,0.00,,,-99.99,wx200d/1.3,2013-01-30 02:30:00,
2013-01-29 18:45:00,51.6,32.0,30.15,West,268,0.0,0.0,47,0.00,,,-99.99,wx200d/1.3,2013-01-30 02:45:00,
2013-01-29 19:00:00,51.4,32.0,30.15,West,268,0.0,0.0,48,0.00,,,-99.99,wx200d/1.3,2013-01-30 03:00:00,
2013-01-29 19:15:00,51.8,32.0,30.15,West,268,0.0,0.0,46,0.00,,,-99.99,wx200d/1.3,2013-01-30 03:15:00,
2013-01-29 19:30:00,51.3,32.0,30.15,West,268,0.0,0.0,46,0.00,,,-99.99,wx200d/1.3,2013-01-30 03:30:00,
2013-01-29 19:45:00,51.1,32.0,30.15,West,268,0.0,0.0,46,0.00,,,-99.99,wx200d/1.3,2013-01-30 03:45:00,
2013-01-29 20:00:00,50.9,32.0,30.15,West,268,0.0,0.0,46,0.00,,,-99.99,wx200d/1.3,2013-01-30 04:00:00,
2013-01-29 20:15:00,50.5,32.0,30.15,West,268,0.0,0.0,46,0.00,,,-99.99,wx200d/1.3,2013-01-30 04:15:00,
2013-01-29 20:30:00,50.7,32.0,30.15,West,268,0.0,0.0,46,0.00,,,-99.99,wx200d/1.3,2013-01-30 04:30:00,
2013-01-29 20:45:00,50.5,32.0,30.15,West,268,0.0,0.0,45,0.00,,,-99.99,wx200d/1.3,2013-01-30 04:45:00,
2013-01-29 21:15:00,50.7,32.0,30.15,West,268,0.0,0.0,46,0.00,,,-99.99,wx200d/1.3,2013-01-30 05:15:00,
2013-01-29 21:30:00,50.4,32.0,30.15,West,268,0.0,0.0,46,0.00,,,-99.99,wx200d/1.3,2013-01-30 05:30:00,
2013-01-29 21:45:00,50.9,32.0,30.15,West,268,0.0,0.0,46,0.00,,,-99.99,wx200d/1.3,2013-01-30 05:45:00,
2013-01-29 22:00:00,51.1,32.0,30.15,West,268,0.0,0.0,43,0.00,,,-99.99,wx200d/1.3,2013-01-30 06:00:00,
2013-01-29 22:15:00,50.5,32.0,30.15,West,268,0.0,0.0,43,0.00,,,-99.99,wx200d/1.3,2013-01-30 06:15:00,
2013-01-29 22:30:00,50.2,32.0,30.15,West,268,0.0,0.0,46,0.00,,,-99.99,wx200d/1.3,2013-01-30 06:30:00,
2013-01-29 22:45:00,49.6,32.0,30.15,West,268,0.0,0.0,48,0.00,,,-99.99,wx200d/1.3,2013-01-30 06:45:00,
2013-01-29 23:00:00,49.5,32.0,30.15,West,268,0.0,0.0,49,0.00,,,-99.99,wx200d/1.3,2013-01-30 07:00:00,
2013-01-29 23:15:00,49.1,32.0,30.18,West,268,0.0,0.0,49,0.00,,,-99.99,wx200d/1.3,2013-01-30 07:15:00,
2013-01-29 23:30:00,48.9,32.0,30.15,West,268,0.0,0.0,49,0.00,,,-99.99,wx200d/1.3,2013-01-30 07:30:00,
2013-01-29 23:45:00,48.9,32.0,30.15,West,268,0.0,0.0,51,0.00,,,-99.99,wx200d/1.3,2013-01-30 07:45:00,